메인 페이지
METAR-TAF:

METAR-TAF

공항 :

Natchez-Adams County Airport (Hardy-Anders Field)

Natchez, 미시시피, 미국

위도: 31-37N, 경도: 091-18W, 고도: 83m

현재 날씨관측

예보는 49분 전, 18:03시(UTC)에 발표되었습니다.
여러 방향의 바람 4kt
온도 11°C
습도 94%
기압 1015 hPa
시정: 16.1km
고도 600ft 상공 구름 많음
고도 2000ft 상공 구름 많음
고도 3800ft 상공 흐림

METAR: KHEZ 121803Z AUTO VRB04KT 10SM BKN006 BKN020 OVC038 11/10 A2997 RMK AO2 LTG DSNT SE

시각: 12:52 (18:52 UTC)


TAF: 누락

4,000개 이상의 공항 관측 자료 및 예보 (METAR 및 TAF 보고).

지도상에서 검색 가능한 기상관측소가 노란 점과 빨간 점으로 표시되어 있습니다.

기상관측소 명을 보려면 표시 위로 마우스를 이동하세요.

날씨 관측과 예보를 보려면 클릭하세요.

지도 변경 : 확대하려면 엑스 표시가 있는 녹색 버튼, 축소하려면 빼기 표시가 있는 녹색 버튼, 다음 페이지의 지도를 보려면 녹색 화살표를 클릭하세요.


METAR-TAF: